^^
Grace C. Lehan Memorial Weather Station Historical Data
Daily Summary for August 4, 2022 Units:  Both    English   Metric
Daily Weekly Monthly Yearly
  High: Low: Average:
Temperature: 85.9 °F /  29.9 °C 64.2 °F /  17.9 °C 70.1 °F /  21.2 °C
Dew Point: 71.9 °F /  22.2 °C 60.3 °F /  15.7 °C 63.9 °F /  17.7 °C
Humidity: 91.3% 61.6% 82%
Wind Speed: 0.9mph /  1.4km/h - 0mph /  0km/h
Wind Gust: 5mph /  8km/h - -
Wind- - SW
Pressure: 30.15 in /  1020.9 hPa 30.07 in /  1018.2 hPa -
Precipitation: 0.00 in /  0 mm    
 
 
Tabular Data for August 4, 2022
Time Temperature Dew Point Pressure Wind Wind Speed Wind Gust Humidity Rainfall Rate (Hourly) solar
00:00 67.1 °F /  19.5 °C 60.4 °F /  15.8 °C 30.15in /  1020.9hPa Calm     79% 0.00in /  0mm 0 W/m2
00:09 67 °F /  19.4 °C 60.3 °F /  15.7 °C 30.15in /  1020.9hPa Calm     79% 0.00in /  0mm 0 W/m2
00:14 66.9 °F /  19.4 °C 60.6 °F /  15.9 °C 30.15in /  1020.9hPa Calm     79.9% 0.00in /  0mm 0 W/m2
00:19 66.9 °F /  19.4 °C 60.5 °F /  15.8 °C 30.15in /  1020.9hPa Calm     80% 0.00in /  0mm 0 W/m2
00:24 66.9 °F /  19.4 °C 60.5 °F /  15.8 °C 30.14in /  1020.5hPa Calm     80% 0.00in /  0mm 0 W/m2
00:29 66.8 °F /  19.3 °C 60.4 °F /  15.8 °C 30.14in /  1020.5hPa Calm     80% 0.00in /  0mm 0 W/m2
00:34 66.8 °F /  19.3 °C 60.4 °F /  15.8 °C 30.14in /  1020.5hPa Calm     80% 0.00in /  0mm 0 W/m2
00:39 66.8 °F /  19.3 °C 60.4 °F /  15.8 °C 30.14in /  1020.5hPa Calm     80% 0.00in /  0mm 0 W/m2
00:44 66.7 °F /  19.3 °C 60.4 °F /  15.8 °C 30.14in /  1020.5hPa Calm     80% 0.00in /  0mm 0 W/m2
00:49 66.7 °F /  19.3 °C 60.6 °F /  15.9 °C 30.14in /  1020.5hPa Calm     80.7% 0.00in /  0mm 0 W/m2
00:54 66.6 °F /  19.2 °C 60.6 °F /  15.9 °C 30.14in /  1020.5hPa Calm     81% 0.00in /  0mm 0 W/m2
00:59 66.6 °F /  19.2 °C 60.5 °F /  15.8 °C 30.14in /  1020.5hPa Calm     81% 0.00in /  0mm 0 W/m2
01:04 66.5 °F /  19.2 °C 60.5 °F /  15.8 °C 30.14in /  1020.5hPa Calm     81% 0.00in /  0mm 0 W/m2
01:09 66.4 °F /  19.1 °C 60.5 °F /  15.8 °C 30.14in /  1020.5hPa Calm     81.4% 0.00in /  0mm 0 W/m2
01:14 66.3 °F /  19.1 °C 60.5 °F /  15.8 °C 30.14in /  1020.5hPa Calm     81.5% 0.00in /  0mm 0 W/m2
01:19 66.2 °F /  19 °C 60.6 °F /  15.9 °C 30.14in /  1020.5hPa Calm     82% 0.00in /  0mm 0 W/m2
01:24 66.2 °F /  19 °C 60.5 °F /  15.8 °C 30.14in /  1020.5hPa Calm     82% 0.00in /  0mm 0 W/m2
01:29 66.1 °F /  18.9 °C 60.4 °F /  15.8 °C 30.13in /  1020.2hPa Calm     82% 0.00in /  0mm 0 W/m2
01:34 66 °F /  18.9 °C 60.6 °F /  15.9 °C 30.13in /  1020.2hPa Calm     82.8% 0.00in /  0mm 0 W/m2
01:39 65.9 °F /  18.8 °C 60.6 °F /  15.9 °C 30.13in /  1020.2hPa Calm     83% 0.00in /  0mm 0 W/m2
01:44 65.9 °F /  18.8 °C 60.6 °F /  15.9 °C 30.13in /  1020.2hPa Calm     83% 0.00in /  0mm 0 W/m2
01:49 65.9 °F /  18.8 °C 60.6 °F /  15.9 °C 30.13in /  1020.2hPa Calm     83.1% 0.00in /  0mm 0 W/m2
01:54 65.8 °F /  18.8 °C 60.6 °F /  15.9 °C 30.13in /  1020.2hPa Calm     83.3% 0.00in /  0mm 0 W/m2
01:59 65.8 °F /  18.8 °C 60.8 °F /  16 °C 30.12in /  1019.9hPa Calm     84% 0.00in /  0mm 0 W/m2
02:04 65.8 °F /  18.8 °C 60.8 °F /  16 °C 30.12in /  1019.9hPa Calm     84% 0.00in /  0mm 0 W/m2
02:09 65.7 °F /  18.7 °C 60.8 °F /  16 °C 30.12in /  1019.9hPa Calm     84% 0.00in /  0mm 0 W/m2
02:14 65.7 °F /  18.7 °C 60.7 °F /  15.9 °C 30.12in /  1019.9hPa Calm     84% 0.00in /  0mm 0 W/m2
02:19 65.6 °F /  18.7 °C 60.6 °F /  15.9 °C 30.12in /  1019.9hPa Calm     84% 0.00in /  0mm 0 W/m2
02:24 65.6 °F /  18.7 °C 60.9 °F /  16.1 °C 30.12in /  1019.9hPa Calm     84.7% 0.00in /  0mm 0 W/m2
02:29 65.5 °F /  18.6 °C 60.9 °F /  16.1 °C 30.12in /  1019.9hPa Calm     85% 0.00in /  0mm 0 W/m2
02:34 65.4 °F /  18.6 °C 60.8 °F /  16 °C 30.12in /  1019.9hPa Calm     85% 0.00in /  0mm 0 W/m2
02:39 65.4 °F /  18.6 °C 60.8 °F /  16 °C 30.12in /  1019.9hPa Calm     85% 0.00in /  0mm 0 W/m2
02:44 65.3 °F /  18.5 °C 60.7 °F /  15.9 °C 30.12in /  1019.9hPa Calm     85% 0.00in /  0mm 0 W/m2
02:49 65.3 °F /  18.5 °C 60.6 °F /  15.9 °C 30.12in /  1019.9hPa Calm     85% 0.00in /  0mm 0 W/m2
02:54 65.2 °F /  18.4 °C 60.6 °F /  15.9 °C 30.11in /  1019.5hPa Calm     85% 0.00in /  0mm 0 W/m2
02:59 65.2 °F /  18.4 °C 60.6 °F /  15.9 °C 30.11in /  1019.5hPa Calm     85.1% 0.00in /  0mm 0 W/m2
03:04 65.1 °F /  18.4 °C 60.8 °F /  16 °C 30.12in /  1019.9hPa Calm     86% 0.00in /  0mm 0 W/m2
03:09 65 °F /  18.3 °C 60.8 °F /  16 °C 30.11in /  1019.5hPa Calm     86% 0.00in /  0mm 0 W/m2
03:14 65 °F /  18.3 °C 60.7 °F /  15.9 °C 30.11in /  1019.5hPa Calm     86% 0.00in /  0mm 0 W/m2
03:19 65 °F /  18.3 °C 60.7 °F /  15.9 °C 30.11in /  1019.5hPa Calm     86% 0.00in /  0mm 0 W/m2
03:24 65 °F /  18.3 °C 60.8 °F /  16 °C 30.11in /  1019.5hPa Calm     86.5% 0.00in /  0mm 0 W/m2
03:29 64.9 °F /  18.3 °C 60.9 °F /  16.1 °C 30.11in /  1019.5hPa Calm     87% 0.00in /  0mm 0 W/m2
03:34 64.9 °F /  18.3 °C 60.9 °F /  16.1 °C 30.11in /  1019.5hPa Calm     87% 0.00in /  0mm 0 W/m2
03:39 64.9 °F /  18.3 °C 60.9 °F /  16.1 °C 30.11in /  1019.5hPa Calm     87% 0.00in /  0mm 0 W/m2
03:44 64.9 °F /  18.3 °C 60.9 °F /  16.1 °C 30.11in /  1019.5hPa Calm     87% 0.00in /  0mm 0 W/m2
03:49 64.9 °F /  18.3 °C 60.9 °F /  16.1 °C 30.11in /  1019.5hPa Calm     87% 0.00in /  0mm 0 W/m2
03:54 64.9 °F /  18.3 °C 60.9 °F /  16.1 °C 30.11in /  1019.5hPa Calm     87% 0.00in /  0mm 0 W/m2
03:59 64.9 °F /  18.3 °C 61 °F /  16.1 °C 30.11in /  1019.5hPa Calm     87% 0.00in /  0mm 0 W/m2
04:00 65 °F /  18.3 °C 61 °F /  16.1 °C 30.11in /  1019.5hPa Calm     87% 0.00in /  0mm 0 W/m2
04:09 65 °F /  18.3 °C 61.4 °F /  16.3 °C 30.11in /  1019.5hPa Calm     88% 0.00in /  0mm 0 W/m2
04:14 65.1 °F /  18.4 °C 61.5 °F /  16.4 °C 30.10in /  1019.2hPa Calm     88% 0.00in /  0mm 0 W/m2
04:19 65.2 °F /  18.4 °C 61.6 °F /  16.4 °C 30.11in /  1019.5hPa Calm     88% 0.00in /  0mm 0 W/m2
04:24 65.3 °F /  18.5 °C 61.7 °F /  16.5 °C 30.11in /  1019.5hPa Calm     88% 0.00in /  0mm 0 W/m2
04:29 65.3 °F /  18.5 °C 61.4 °F /  16.3 °C 30.10in /  1019.2hPa Calm     87.3% 0.00in /  0mm 0 W/m2
04:34 65.3 °F /  18.5 °C 61.3 °F /  16.3 °C 30.10in /  1019.2hPa Calm     87% 0.00in /  0mm 0 W/m2
04:39 65.3 °F /  18.5 °C 61.3 °F /  16.3 °C 30.10in /  1019.2hPa Calm     87% 0.00in /  0mm 0 W/m2
04:44 65.3 °F /  18.5 °C 61.3 °F /  16.3 °C 30.10in /  1019.2hPa Calm     87% 0.00in /  0mm 0 W/m2
04:49 65.3 °F /  18.5 °C 61.3 °F /  16.3 °C 30.10in /  1019.2hPa Calm     87% 0.00in /  0mm 0 W/m2
04:54 65.2 °F /  18.4 °C 61.2 °F /  16.2 °C 30.10in /  1019.2hPa Calm     87% 0.00in /  0mm 0 W/m2
04:59 65.2 °F /  18.4 °C 61.2 °F /  16.2 °C 30.10in /  1019.2hPa Calm     87% 0.00in /  0mm 0 W/m2
05:04 65.1 °F /  18.4 °C 61.2 °F /  16.2 °C 30.10in /  1019.2hPa Calm     87% 0.00in /  0mm 0 W/m2
05:09 65 °F /  18.3 °C 61.3 °F /  16.3 °C 30.09in /  1018.8hPa Calm     87.8% 0.00in /  0mm 0 W/m2
05:14 65 °F /  18.3 °C 61.3 °F /  16.3 °C 30.09in /  1018.8hPa Calm     87.8% 0.00in /  0mm 0 W/m2
05:19 64.9 °F /  18.3 °C 61.3 °F /  16.3 °C 30.09in /  1018.8hPa Calm     88% 0.00in /  0mm 0 W/m2
05:24 64.9 °F /  18.3 °C 61.3 °F /  16.3 °C 30.09in /  1018.8hPa Calm     88% 0.00in /  0mm 0 W/m2
05:29 64.8 °F /  18.2 °C 61.2 °F /  16.2 °C 30.09in /  1018.8hPa Calm     88% 0.00in /  0mm 0 W/m2
05:34 64.7 °F /  18.2 °C 61.1 °F /  16.2 °C 30.09in /  1018.8hPa Calm     88% 0.00in /  0mm 0 W/m2
05:39 64.6 °F /  18.1 °C 61 °F /  16.1 °C 30.09in /  1018.8hPa Calm     88% 0.00in /  0mm 0 W/m2
05:44 64.5 °F /  18.1 °C 60.9 °F /  16.1 °C 30.09in /  1018.8hPa Calm     88% 0.00in /  0mm 0 W/m2
05:49 64.5 °F /  18.1 °C 60.9 °F /  16.1 °C 30.09in /  1018.8hPa Calm     88.1% 0.00in /  0mm 0 W/m2
05:54 64.4 °F /  18 °C 61.1 °F /  16.2 °C 30.09in /  1018.8hPa Calm     89% 0.00in /  0mm 0 W/m2
05:59 64.4 °F /  18 °C 61.1 °F /  16.2 °C 30.09in /  1018.8hPa Calm     89% 0.00in /  0mm 0 W/m2
06:04 64.3 °F /  17.9 °C 61 °F /  16.1 °C 30.09in /  1018.8hPa Calm     89% 0.00in /  0mm 0 W/m2
06:09 64.3 °F /  17.9 °C 61 °F /  16.1 °C 30.09in /  1018.8hPa Calm     89% 0.00in /  0mm 0 W/m2
06:14 64.3 °F /  17.9 °C 61 °F /  16.1 °C 30.10in /  1019.2hPa Calm     89% 0.00in /  0mm 0 W/m2
06:19 64.3 °F /  17.9 °C 61 °F /  16.1 °C 30.10in /  1019.2hPa Calm     89% 0.00in /  0mm 5 W/m2
06:24 64.2 °F /  17.9 °C 61.1 °F /  16.2 °C 30.10in /  1019.2hPa Calm     89.6% 0.00in /  0mm 9 W/m2
06:28 64.3 °F /  17.9 °C 61.3 °F /  16.3 °C 30.10in /  1019.2hPa Calm     90% 0.00in /  0mm 14 W/m2
06:34 64.3 °F /  17.9 °C 61.3 °F /  16.3 °C 30.10in /  1019.2hPa Calm     90% 0.00in /  0mm 26 W/m2
06:39 64.3 °F /  17.9 °C 61.3 °F /  16.3 °C 30.10in /  1019.2hPa Calm     90% 0.00in /  0mm 33 W/m2
06:44 64.4 °F /  18 °C 61.4 °F /  16.3 °C 30.10in /  1019.2hPa Calm     90% 0.00in /  0mm 42 W/m2
06:49 64.5 °F /  18.1 °C 61.5 °F /  16.4 °C 30.10in /  1019.2hPa Calm     90% 0.00in /  0mm 51 W/m2
06:54 64.7 °F /  18.2 °C 61.7 °F /  16.5 °C 30.10in /  1019.2hPa Calm     90% 0.00in /  0mm 51 W/m2
06:59 64.8 °F /  18.2 °C 61.9 °F /  16.6 °C 30.10in /  1019.2hPa Calm     90.6% 0.00in /  0mm 47 W/m2
07:04 64.9 °F /  18.3 °C 62.2 °F /  16.8 °C 30.11in /  1019.5hPa Calm     91% 0.00in /  0mm 42 W/m2
07:09 65 °F /  18.3 °C 62.3 °F /  16.8 °C 30.11in /  1019.5hPa Calm     91% 0.00in /  0mm 51 W/m2
07:14 65.2 °F /  18.4 °C 62.5 °F /  16.9 °C 30.11in /  1019.5hPa Calm     91% 0.00in /  0mm 65 W/m2
07:19 65.3 °F /  18.5 °C 62.6 °F /  17 °C 30.11in /  1019.5hPa Calm     91% 0.00in /  0mm 77 W/m2
07:24 65.5 °F /  18.6 °C 62.9 °F /  17.2 °C 30.11in /  1019.5hPa Calm     91.3% 0.00in /  0mm 95 W/m2
07:29 65.7 °F /  18.7 °C 63 °F /  17.2 °C 30.11in /  1019.5hPa Calm     91% 0.00in /  0mm 100 W/m2
07:34 66.1 °F /  18.9 °C 63.4 °F /  17.4 °C 30.11in /  1019.5hPa Calm     91% 0.00in /  0mm 111 W/m2
07:39 66.4 °F /  19.1 °C 63.7 °F /  17.6 °C 30.11in /  1019.5hPa Calm     90.9% 0.00in /  0mm 113 W/m2
07:44 66.7 °F /  19.3 °C 63.7 °F /  17.6 °C 30.11in /  1019.5hPa Calm     90% 0.00in /  0mm 120 W/m2
07:49 67.1 °F /  19.5 °C 64 °F /  17.8 °C 30.11in /  1019.5hPa Calm     90% 0.00in /  0mm 125 W/m2
07:54 67.4 °F /  19.7 °C 64.1 °F /  17.8 °C 30.11in /  1019.5hPa Calm     89.1% 0.00in /  0mm 128 W/m2
07:59 67.8 °F /  19.9 °C 64.2 °F /  17.9 °C 30.11in /  1019.5hPa Calm     88.5% 0.00in /  0mm 128 W/m2
08:00 67.9 °F /  19.9 °C 64.2 °F /  17.9 °C 30.11in /  1019.5hPa Calm     88% 0.00in /  0mm 114 W/m2
08:09 68.5 °F /  20.3 °C 64.7 °F /  18.2 °C 30.11in /  1019.5hPa Calm     87.5% 0.00in /  0mm 109 W/m2
08:14 68.9 °F /  20.5 °C 64.9 °F /  18.3 °C 30.11in /  1019.5hPa Calm     87% 0.00in /  0mm 114 W/m2
08:19 69.3 °F /  20.7 °C 65.2 °F /  18.4 °C 30.11in /  1019.5hPa Calm     87% 0.00in /  0mm 149 W/m2
08:24 69.6 °F /  20.9 °C 65.2 °F /  18.4 °C 30.11in /  1019.5hPa Calm     86.1% 0.00in /  0mm 353 W/m2
08:29 70 °F /  21.1 °C 65.4 °F /  18.6 °C 30.11in /  1019.5hPa Calm     85.3% 0.00in /  0mm 396 W/m2
08:34 70.4 °F /  21.3 °C 65.5 °F /  18.6 °C 30.11in /  1019.5hPa Calm     84.4% 0.00in /  0mm 330 W/m2
08:39 70.9 °F /  21.6 °C 65.9 °F /  18.8 °C 30.11in /  1019.5hPa Calm     84% 0.00in /  0mm 496 W/m2
08:44 71.7 °F /  22.1 °C 66.6 °F /  19.2 °C 30.10in /  1019.2hPa Calm     83.9% 0.00in /  0mm 496 W/m2
08:49 72.5 °F /  22.5 °C 66.9 °F /  19.4 °C 30.10in /  1019.2hPa Calm     82.6% 0.00in /  0mm 547 W/m2
08:54 73.4 °F /  23 °C 67.2 °F /  19.6 °C 30.10in /  1019.2hPa Calm     80.9% 0.00in /  0mm 529 W/m2
08:59 74.2 °F /  23.4 °C 67.3 °F /  19.6 °C 30.10in /  1019.2hPa Calm     79% 0.00in /  0mm 199 W/m2
09:04 74.6 °F /  23.7 °C 67.3 °F /  19.6 °C 30.10in /  1019.2hPa Calm     78% 0.00in /  0mm 257 W/m2
09:09 74.9 °F /  23.8 °C 67.4 °F /  19.7 °C 30.10in /  1019.2hPa Calm     77.3% 0.00in /  0mm 643 W/m2
09:14 75.5 °F /  24.2 °C 68 °F /  20 °C 30.10in /  1019.2hPa WSW 0.1mph /  0.2km/h 2mph /  3.2km/h 77.4% 0.00in /  0mm 643 W/m2
09:19 76 °F /  24.4 °C 67.6 °F /  19.8 °C 30.10in /  1019.2hPa Calm   2mph /  3.2km/h 75.1% 0.00in /  0mm 309 W/m2
09:24 76.2 °F /  24.6 °C 67.5 °F /  19.7 °C 30.10in /  1019.2hPa Calm   2mph /  3.2km/h 74.4% 0.00in /  0mm 304 W/m2
09:29 76.2 °F /  24.6 °C 67.7 °F /  19.8 °C 30.10in /  1019.2hPa Calm   2mph /  3.2km/h 74.9% 0.00in /  0mm 570 W/m2
09:34 76.4 °F /  24.7 °C 68.1 °F /  20.1 °C 30.10in /  1019.2hPa Calm   2mph /  3.2km/h 75.6% 0.00in /  0mm 570 W/m2
09:39 76.9 °F /  24.9 °C 68.4 °F /  20.2 °C 30.10in /  1019.2hPa Calm     75% 0.00in /  0mm 357 W/m2
09:44 77.4 °F /  25.2 °C 68.7 °F /  20.4 °C 30.10in /  1019.2hPa Calm     74.5% 0.00in /  0mm 584 W/m2
09:49 78 °F /  25.6 °C 68.4 °F /  20.2 °C 30.10in /  1019.2hPa Calm   1mph /  1.6km/h 72.3% 0.00in /  0mm 592 W/m2
09:54 78.4 °F /  25.8 °C 68.7 °F /  20.4 °C 30.10in /  1019.2hPa Calm   1mph /  1.6km/h 72.3% 0.00in /  0mm 598 W/m2
09:59 79 °F /  26.1 °C 69.3 °F /  20.7 °C 30.10in /  1019.2hPa Calm   1mph /  1.6km/h 72.3% 0.00in /  0mm 619 W/m2
10:04 79.6 °F /  26.4 °C 69.4 °F /  20.8 °C 30.10in /  1019.2hPa SSW 0.3mph /  0.5km/h 3mph /  4.8km/h 71.1% 0.00in /  0mm 708 W/m2
10:09 79.7 °F /  26.5 °C 69.4 °F /  20.8 °C 30.10in /  1019.2hPa SSW 0.1mph /  0.2km/h 3mph /  4.8km/h 70.7% 0.00in /  0mm 708 W/m2
10:14 80 °F /  26.7 °C 69.5 °F /  20.8 °C 30.10in /  1019.2hPa Calm   3mph /  4.8km/h 70.5% 0.00in /  0mm 292 W/m2
10:19 79.9 °F /  26.6 °C 69.2 °F /  20.7 °C 30.09in /  1018.8hPa Calm   3mph /  4.8km/h 69.8% 0.00in /  0mm 417 W/m2
10:24 79.7 °F /  26.5 °C 69.2 °F /  20.7 °C 30.09in /  1018.8hPa Calm   3mph /  4.8km/h 70.4% 0.00in /  0mm 404 W/m2
10:29 79.4 °F /  26.3 °C 69.1 °F /  20.6 °C 30.09in /  1018.8hPa Calm   3mph /  4.8km/h 70.8% 0.00in /  0mm 443 W/m2
10:34 79.3 °F /  26.3 °C 69 °F /  20.6 °C 30.09in /  1018.8hPa Calm   3mph /  4.8km/h 70.8% 0.00in /  0mm 450 W/m2
10:39 79.3 °F /  26.3 °C 69.4 °F /  20.8 °C 30.09in /  1018.8hPa Calm     71.7% 0.00in /  0mm 392 W/m2
10:44 79.6 °F /  26.4 °C 69.7 °F /  20.9 °C 30.09in /  1018.8hPa Calm     72% 0.00in /  0mm 788 W/m2
10:49 80.1 °F /  26.7 °C 69.8 °F /  21 °C 30.09in /  1018.8hPa Calm   1mph /  1.6km/h 70.9% 0.00in /  0mm 788 W/m2
10:54 80.5 °F /  26.9 °C 69.9 °F /  21.1 °C 30.09in /  1018.8hPa Calm   1mph /  1.6km/h 70.3% 0.00in /  0mm 613 W/m2
10:59 81.1 °F /  27.3 °C 70.9 °F /  21.6 °C 30.09in /  1018.8hPa Calm   1mph /  1.6km/h 71.2% 0.00in /  0mm 615 W/m2
11:04 81.7 °F /  27.6 °C 70.5 °F /  21.4 °C 30.09in /  1018.8hPa Calm   1mph /  1.6km/h 69% 0.00in /  0mm 782 W/m2
11:09 82.1 °F /  27.8 °C 70.6 °F /  21.4 °C 30.09in /  1018.8hPa Calm     68.4% 0.00in /  0mm 758 W/m2
11:14 82.6 °F /  28.1 °C 70.4 °F /  21.3 °C 30.08in /  1018.5hPa SSW 0.1mph /  0.2km/h 3mph /  4.8km/h 66.8% 0.00in /  0mm 803 W/m2
11:19 82.9 °F /  28.3 °C 70.9 °F /  21.6 °C 30.08in /  1018.5hPa SW 0.9mph /  1.4km/h 4mph /  6.4km/h 67.2% 0.00in /  0mm 810 W/m2
11:24 83.3 °F /  28.5 °C 70.5 °F /  21.4 °C 30.08in /  1018.5hPa Calm   4mph /  6.4km/h 65.5% 0.00in /  0mm 817 W/m2
11:29 83.9 °F /  28.8 °C 71.6 °F /  22 °C 30.08in /  1018.5hPa Calm   4mph /  6.4km/h 66.5% 0.00in /  0mm 795 W/m2
11:34 84.6 °F /  29.2 °C 71.6 °F /  22 °C 30.08in /  1018.5hPa Calm   4mph /  6.4km/h 65.1% 0.00in /  0mm 689 W/m2
11:39 85.1 °F /  29.5 °C 71.6 °F /  22 °C 30.08in /  1018.5hPa Calm   1mph /  1.6km/h 64% 0.00in /  0mm 728 W/m2
11:44 85.6 °F /  29.8 °C 71.9 °F /  22.2 °C 30.08in /  1018.5hPa SW 0.4mph /  0.6km/h 5mph /  8km/h 63.7% 0.00in /  0mm 735 W/m2
11:49 85.9 °F /  29.9 °C 71.4 °F /  21.9 °C 30.08in /  1018.5hPa SW 0.1mph /  0.2km/h 5mph /  8km/h 62% 0.00in /  0mm 710 W/m2
11:54 85.5 °F /  29.7 °C 70.8 °F /  21.6 °C 30.08in /  1018.5hPa SW 0.1mph /  0.2km/h 5mph /  8km/h 61.6% 0.00in /  0mm 793 W/m2
11:59 85 °F /  29.4 °C 71.1 °F /  21.7 °C 30.08in /  1018.5hPa SW 0.2mph /  0.3km/h 5mph /  8km/h 63.2% 0.00in /  0mm 694 W/m2
12:00 84.9 °F /  29.4 °C 70.9 °F /  21.6 °C 30.07in /  1018.2hPa Calm   5mph /  8km/h 63% 0.00in /  0mm 190 W/m2
12:09 84.5 °F /  29.2 °C 70.6 °F /  21.4 °C 30.07in /  1018.2hPa WSW 0.1mph /  0.2km/h 2mph /  3.2km/h 63.2% 0.00in /  0mm 207 W/m2
12:14 84.1 °F /  28.9 °C 70.8 °F /  21.6 °C 30.07in /  1018.2hPa WSW 0.1mph /  0.2km/h 2mph /  3.2km/h 64.3% 0.00in /  0mm 213 W/m2
12:19 83.9 °F /  28.8 °C 70.7 °F /  21.5 °C 30.07in /  1018.2hPa Calm   2mph /  3.2km/h 64.6% 0.00in /  0mm 276 W/m2
12:23 83.5 °F /  28.6 °C 70.4 °F /  21.3 °C 30.07in /  1018.2hPa Calm   2mph /  3.2km/h 64.7% 0.00in /  0mm 302 W/m2
Hartford County Weather
Compliments of Weather Underground - 4 mb